Time;durP1;ratioP1;P1;durP2;ratioP2;P2;SDS_P1;SDS_P2;PMS_P1;PMS_P2;Temp;Humidity;BMP_temperature;BMP_pressure;BME280_temperature;BME280_humidity;BME280_pressure;Samples;Min_cycle;Max_cycle;Signal;HPM_P1;HPM_P2
2022/08/26 00:02:30;;;;;;;7.40;6.60;;;;;;;;;;4916897;29;20452;-73
2022/08/26 00:05:22;;;;;;;9.33;7.93;;;;;;;;;;4918534;29;20475;-73
2022/08/26 00:08:11;;;;;;;8.80;8.00;;;;;;;;;;4919983;29;20460;-73
2022/08/26 00:11:02;;;;;;;9.63;8.63;;;;;;;;;;4919886;29;21143;-73
2022/08/26 00:13:55;;;;;;;10.07;7.90;;;;;;;;;;4919021;29;20452;-73
2022/08/26 00:16:47;;;;;;;8.60;7.80;;;;;;;;;;4917265;29;20472;-73
2022/08/26 00:19:38;;;;;;;8.30;7.70;;;;;;;;;;4917859;29;20452;-72
2022/08/26 00:22:27;;;;;;;9.97;8.00;;;;;;;;;;4916255;29;20468;-72
2022/08/26 00:25:16;;;;;;;11.80;8.60;;;;;;;;;;4921194;29;20555;-71
2022/08/26 00:28:07;;;;;;;8.53;7.83;;;;;;;;;;4920267;29;20660;-72
2022/08/26 00:30:58;;;;;;;9.33;8.20;;;;;;;;;;4917952;29;21042;-72
2022/08/26 00:33:49;;;;;;;9.27;8.37;;;;;;;;;;4917648;29;20610;-72
2022/08/26 00:36:42;;;;;;;8.97;7.63;;;;;;;;;;4921125;29;20487;-72
2022/08/26 00:39:34;;;;;;;12.77;8.83;;;;;;;;;;4924353;29;20976;-72
2022/08/26 00:42:26;;;;;;;9.63;8.60;;;;;;;;;;4925736;29;20452;-72
2022/08/26 00:45:19;;;;;;;8.73;7.93;;;;;;;;;;4920776;29;20484;-72
2022/08/26 00:48:09;;;;;;;9.73;8.70;;;;;;;;;;4920860;29;20499;-72
2022/08/26 00:51:04;;;;;;;9.30;8.50;;;;;;;;;;4921038;29;20559;-72
2022/08/26 00:53:55;;;;;;;9.63;8.47;;;;;;;;;;4922254;28;21031;-72
2022/08/26 00:56:46;;;;;;;10.33;8.70;;;;;;;;;;4929226;29;20534;-72
2022/08/26 00:59:36;;;;;;;9.27;8.40;;;;;;;;;;4919592;29;20456;-72
2022/08/26 01:02:27;;;;;;;14.13;9.47;;;;;;;;;;4920438;29;20550;-72
2022/08/26 01:05:17;;;;;;;8.73;7.93;;;;;;;;;;4921254;28;20476;-72
2022/08/26 01:08:07;;;;;;;12.17;8.50;;;;;;;;;;4923688;29;20850;-72
2022/08/26 01:11:01;;;;;;;10.17;8.50;;;;;;;;;;4924580;29;20530;-72
2022/08/26 01:13:53;;;;;;;9.33;8.53;;;;;;;;;;4920603;29;20913;-72
2022/08/26 01:16:47;;;;;;;9.00;8.10;;;;;;;;;;4926945;28;20480;-72
2022/08/26 01:19:41;;;;;;;9.70;8.33;;;;;;;;;;4926867;28;20546;-72
2022/08/26 01:22:32;;;;;;;10.03;9.03;;;;;;;;;;4925531;29;20590;-72
2022/08/26 01:25:25;;;;;;;9.50;8.60;;;;;;;;;;4928632;29;20554;-73
2022/08/26 01:28:15;;;;;;;9.73;8.83;;;;;;;;;;4921415;29;20552;-72
2022/08/26 01:31:08;;;;;;;8.67;7.90;;;;;;;;;;4921219;29;20476;-72
2022/08/26 01:34:03;;;;;;;9.20;8.10;;;;;;;;;;4921751;29;20456;-72
2022/08/26 01:36:57;;;;;;;10.50;8.30;;;;;;;;;;4924746;29;20487;-73
2022/08/26 01:39:48;;;;;;;9.37;8.10;;;;;;;;;;4926630;29;20493;-72
2022/08/26 01:42:38;;;;;;;8.43;7.77;;;;;;;;;;4922358;29;22902;-72
2022/08/26 01:45:29;;;;;;;11.03;8.07;;;;;;;;;;4920354;29;20476;-72
2022/08/26 01:48:20;;;;;;;9.10;7.67;;;;;;;;;;4928265;29;21000;-72
2022/08/26 01:51:12;;;;;;;9.97;8.30;;;;;;;;;;4921158;28;20527;-72
2022/08/26 01:54:04;;;;;;;9.00;7.50;;;;;;;;;;4921777;29;20842;-72
2022/08/26 01:59:59;;;;;;;8.80;7.93;;;;;;;;;;4921051;29;20455;-72
2022/08/26 02:02:49;;;;;;;9.03;8.13;;;;;;;;;;4922795;29;20643;-73
2022/08/26 02:05:37;;;;;;;10.00;8.30;;;;;;;;;;4923497;29;20559;-73
2022/08/26 02:08:35;;;;;;;8.40;7.70;;;;;;;;;;4925334;29;20460;-73
2022/08/26 02:11:25;;;;;;;9.53;8.47;;;;;;;;;;4924595;29;20530;-73
2022/08/26 02:14:18;;;;;;;10.20;8.90;;;;;;;;;;4919525;29;20448;-73
2022/08/26 02:17:14;;;;;;;8.70;7.90;;;;;;;;;;4925156;29;20484;-72
2022/08/26 02:20:05;;;;;;;11.30;8.57;;;;;;;;;;4923112;29;20460;-72
2022/08/26 02:23:00;;;;;;;8.80;7.90;;;;;;;;;;4922157;29;20901;-73
2022/08/26 02:25:54;;;;;;;10.17;9.17;;;;;;;;;;4922550;29;20503;-73
2022/08/26 02:28:45;;;;;;;10.57;8.90;;;;;;;;;;4925413;29;20448;-72
2022/08/26 02:31:33;;;;;;;9.60;8.53;;;;;;;;;;4932014;28;20475;-72
2022/08/26 02:34:27;;;;;;;9.23;8.33;;;;;;;;;;4921241;29;20456;-72
2022/08/26 02:37:19;;;;;;;9.90;8.93;;;;;;;;;;4923815;28;20456;-72
2022/08/26 02:40:11;;;;;;;9.70;8.73;;;;;;;;;;4923854;29;20487;-72
2022/08/26 02:43:03;;;;;;;12.40;8.60;;;;;;;;;;4922954;29;20469;-72
2022/08/26 02:45:57;;;;;;;9.00;8.13;;;;;;;;;;4922516;29;20567;-72
2022/08/26 02:48:49;;;;;;;8.63;7.83;;;;;;;;;;4926657;28;20455;-71
2022/08/26 02:51:39;;;;;;;9.23;8.53;;;;;;;;;;4922472;29;20515;-72
2022/08/26 02:54:30;;;;;;;8.97;8.10;;;;;;;;;;4923887;29;20551;-72
2022/08/26 02:57:20;;;;;;;9.30;8.50;;;;;;;;;;4922386;29;20464;-72
2022/08/26 03:00:13;;;;;;;10.20;9.20;;;;;;;;;;4925872;29;20475;-74
2022/08/26 03:03:02;;;;;;;11.17;9.10;;;;;;;;;;4925126;29;20455;-72
2022/08/26 03:05:50;;;;;;;9.77;8.77;;;;;;;;;;4926920;29;20853;-72
2022/08/26 03:08:47;;;;;;;12.20;8.77;;;;;;;;;;4920863;29;20499;-72
2022/08/26 03:11:36;;;;;;;10.90;9.13;;;;;;;;;;4917422;29;20553;-72
2022/08/26 03:14:27;;;;;;;9.80;8.80;;;21.90;99.90;;;;;;4922047;29;20487;-72
2022/08/26 03:17:19;;;;;;;9.43;8.50;;;21.50;99.90;;;;;;4922764;29;20483;-72
2022/08/26 03:20:08;;;;;;;8.97;8.17;;;21.40;99.90;;;;;;4921905;28;21055;-71
2022/08/26 03:23:00;;;;;;;11.50;8.80;;;21.40;99.90;;;;;;4923392;29;20459;-72
2022/08/26 03:25:55;;;;;;;11.30;8.93;;;21.40;99.90;;;;;;4922029;29;20548;-72
2022/08/26 03:31:46;;;;;;;10.73;9.30;;;;;;;;;;4920076;29;21284;-73
2022/08/26 03:34:36;;;;;;;12.23;8.83;;;;;;;;;;4927795;29;20467;-72
2022/08/26 03:37:28;;;;;;;12.70;9.13;;;;;;;;;;4918088;29;20460;-72
2022/08/26 03:40:16;;;;;;;10.67;9.33;;;;;;;;;;4924174;29;20460;-72
2022/08/26 03:43:10;;;;;;;10.57;9.57;;;;;;;;;;4920310;29;20957;-72
2022/08/26 03:45:59;;;;;;;10.53;8.87;;;;;;;;;;4922836;29;20566;-72
2022/08/26 03:48:48;;;;;;;10.70;8.80;;;;;;;;;;4915969;29;20464;-72
2022/08/26 03:51:39;;;;;;;9.90;8.90;;;;;;;;;;4922416;29;20542;-72
2022/08/26 03:54:33;;;;;;;11.30;9.20;;;;;;;;;;4922263;29;20452;-72
2022/08/26 03:57:22;;;;;;;11.20;9.00;;;;;;;;;;4920338;29;21297;-72
2022/08/26 04:00:14;;;;;;;9.47;8.67;;;;;;;;;;4922564;29;20496;-72
2022/08/26 04:03:07;;;;;;;9.60;8.63;;;;;;;;;;4917815;29;20456;-74
2022/08/26 04:05:57;;;;;;;11.47;9.10;;;;;;;;;;4917764;29;20499;-72
2022/08/26 04:08:47;;;;;;;13.10;9.63;;;;;;;;;;4925513;29;20456;-72
2022/08/26 04:11:38;;;;;;;10.13;9.33;;;;;;;;;;4920634;29;20562;-72
2022/08/26 04:14:34;;;;;;;11.37;9.37;;;;;;;;;;4926814;28;20460;-72
2022/08/26 04:17:28;;;;;;;10.60;9.53;;;;;;;;;;4927512;29;20530;-72
2022/08/26 04:20:19;;;;;;;12.47;10.00;;;;;;;;;;4929852;29;20456;-72
2022/08/26 04:23:07;;;;;;;11.20;10.00;;;;;;;;;;4928946;29;21050;-72
2022/08/26 04:25:57;;;;;;;12.07;9.50;;;;;;;;;;4927179;29;21078;-72
2022/08/26 04:28:55;;;;;;;10.73;9.73;;;;;;;;;;4922452;29;20509;-73
2022/08/26 04:31:46;;;;;;;10.07;9.17;;;;;;;;;;4922258;29;20638;-72
2022/08/26 04:34:37;;;;;;;9.60;8.73;;;;;;;;;;4921661;29;20452;-72
2022/08/26 04:37:35;;;;;;;10.93;9.90;;;;;;;;;;4919245;29;20467;-72
2022/08/26 04:40:26;;;;;;;11.60;10.50;;;;;;;;;;4917297;29;20496;-72
2022/08/26 04:43:15;;;;;;;10.33;9.33;;;;;;;;;;4919757;29;20448;-73
2022/08/26 04:46:04;;;;;;;11.20;9.77;;;;;;;;;;4923267;29;21336;-73
2022/08/26 04:48:54;;;;;;;10.40;9.40;;;;;;;;;;4922351;29;20568;-73
2022/08/26 04:51:44;;;;;;;12.03;9.83;;;;;;;;;;4921101;29;20476;-73
2022/08/26 04:54:32;;;;;;;11.43;10.33;;;;;;;;;;4924335;29;20457;-72
2022/08/26 04:57:22;;;;;;;11.77;10.37;;;;;;;;;;4923413;29;20566;-72
2022/08/26 05:00:12;;;;;;;14.43;10.07;;;;;;;;;;4921410;28;20617;-72
2022/08/26 05:03:00;;;;;;;9.57;8.77;;;;;;;;;;4920505;29;20463;-69
2022/08/26 05:05:55;;;;;;;12.97;11.57;;;;;;;;;;4924352;29;20486;-69
2022/08/26 05:08:44;;;;;;;11.70;10.50;;;;;;;;;;4930808;29;20591;-69
2022/08/26 05:11:33;;;;;;;11.80;10.70;;;;;;;;;;4924696;29;20575;-68
2022/08/26 05:14:31;;;;;;;11.80;10.60;;;;;;;;;;4918081;28;20556;-71
2022/08/26 05:17:21;;;;;;;11.20;10.10;;;;;;;;;;4923153;28;20470;-70
2022/08/26 05:20:10;;;;;;;11.37;10.47;;;;;;;;;;4918628;29;20518;-70
2022/08/26 05:23:00;;;;;;;11.87;10.57;;;;;;;;;;4921717;29;20919;-71
2022/08/26 05:25:54;;;;;;;13.50;10.93;;;;;;;;;;4910351;29;20572;-70
2022/08/26 05:28:47;;;;;;;11.63;10.40;;;;;;;;;;4910613;29;20466;-70
2022/08/26 05:31:36;;;;;;;11.77;10.23;;;;;;;;;;4901110;28;20569;-68
2022/08/26 05:34:26;;;;;;;12.67;10.60;;;;;;;;;;4915376;28;21496;-68
2022/08/26 05:37:18;;;;;;;13.80;12.33;;;;;;;;;;4914847;29;20471;-68
2022/08/26 05:40:08;;;;;;;12.27;10.73;;;;;;;;;;4912822;29;20453;-68
2022/08/26 05:42:59;;;;;;;13.20;10.80;;;;;;;;;;4923230;29;20456;-68
2022/08/26 05:45:50;;;;;;;16.90;11.47;;;;;;;;;;4912532;29;20648;-68
2022/08/26 05:48:39;;;;;;;13.07;10.40;;;;;;;;;;4915104;29;21028;-68
2022/08/26 05:51:31;;;;;;;11.93;10.60;;;;;;;;;;4915084;29;20460;-68
2022/08/26 05:54:21;;;;;;;12.27;10.97;;;;;;;;;;4908468;28;23440;-69
2022/08/26 05:57:10;;;;;;;11.23;10.23;;;;;;;;;;4913500;29;20527;-68
2022/08/26 06:00:01;;;;;;;12.00;10.63;;;;;;;;;;4911002;29;20542;-68
2022/08/26 06:02:49;;;;;;;12.03;10.57;;;;;;;;;;4905810;29;20449;-68
2022/08/26 06:05:39;;;;;;;13.63;10.77;;;;;;;;;;4899919;29;20486;-68
2022/08/26 06:08:27;;;;;;;12.87;11.60;;;;;;;;;;4910311;29;20559;-69
2022/08/26 06:11:18;;;;;;;14.00;11.03;;;21.30;99.90;;;;;;4918367;29;20468;-71
2022/08/26 06:14:08;;;;;;;13.83;11.53;;;21.30;99.90;;;;;;4915305;29;20494;-69
2022/08/26 06:16:59;;;;;;;12.77;10.90;;;21.30;99.90;;;;;;4908325;29;20509;-69
2022/08/26 06:19:47;;;;;;;13.57;11.10;;;21.30;99.90;;;;;;4915776;28;21055;-69
2022/08/26 06:25:43;;;;;;;11.77;10.60;;;21.40;99.90;;;;;;4916101;29;20554;-69
2022/08/26 06:28:33;;;;;;;11.50;10.30;;;21.40;99.90;;;;;;4905909;29;20459;-70
2022/08/26 06:31:24;;;;;;;15.20;11.60;;;21.50;99.90;;;;;;4897985;29;20594;-69
2022/08/26 06:34:14;;;;;;;12.27;11.13;;;21.40;99.90;;;;;;4914730;29;20484;-69
2022/08/26 06:37:04;;;;;;;12.97;11.60;;;21.50;99.90;;;;;;4911639;29;20451;-70
2022/08/26 06:39:53;;;;;;;16.33;9.80;;;21.50;99.90;;;;;;4907537;28;21351;-70
2022/08/26 06:42:43;;;;;;;12.27;10.53;;;21.60;99.90;;;;;;4908354;29;20980;-69
2022/08/26 06:45:33;;;;;;;12.83;11.60;;;21.60;99.90;;;;;;4889963;29;21079;-70
2022/08/26 06:48:21;;;;;;;11.93;10.73;;;21.60;99.90;;;;;;4908118;29;20598;-69
2022/08/26 06:51:13;;;;;;;12.07;10.70;;;21.60;99.90;;;;;;4913370;29;20459;-71
2022/08/26 06:54:02;;;;;;;11.83;10.77;;;21.70;99.90;;;;;;4897167;29;20487;-72
2022/08/26 06:56:51;;;;;;;13.90;10.37;;;21.80;99.90;;;;;;4910299;29;20519;-71
2022/08/26 06:59:39;;;;;;;12.80;11.60;;;21.80;99.90;;;;;;4910762;28;23111;-69
2022/08/26 07:02:27;;;;;;;12.50;11.20;;;21.90;99.90;;;;;;4908338;29;20539;-69
2022/08/26 07:05:16;;;;;;;12.93;10.33;;;22.00;99.90;;;;;;4914742;29;22066;-69
2022/08/26 07:08:08;;;;;;;11.43;10.23;;;22.00;99.90;;;;;;4915323;29;20963;-69
2022/08/26 07:10:58;;;;;;;14.10;11.40;;;22.10;99.90;;;;;;4920652;29;20468;-70
2022/08/26 07:13:47;;;;;;;12.83;11.03;;;22.20;99.90;;;;;;4919761;29;20490;-71
2022/08/26 07:16:39;;;;;;;14.50;10.63;;;22.30;99.90;;;;;;4913570;28;20536;-69
2022/08/26 07:19:28;;;;;;;11.77;10.67;;;22.40;99.90;;;;;;4917465;29;20463;-69
2022/08/26 07:22:18;;;;;;;12.47;11.27;;;22.40;99.90;;;;;;4919051;28;20482;-69
2022/08/26 07:25:11;;;;;;;14.37;10.70;;;22.50;99.90;;;;;;4914683;29;20480;-69
2022/08/26 07:28:00;;;;;;;11.50;10.33;;;22.60;99.90;;;;;;4915540;29;20455;-70
2022/08/26 07:30:52;;;;;;;12.13;10.93;;;22.70;99.90;;;;;;4916889;29;20835;-69
2022/08/26 07:33:42;;;;;;;12.00;10.70;;;22.70;99.90;;;;;;4910906;29;20486;-71
2022/08/26 07:36:33;;;;;;;12.57;11.27;;;22.90;99.90;;;;;;4913311;29;20479;-68
2022/08/26 07:39:22;;;;;;;12.57;10.70;;;23.00;99.90;;;;;;4917424;28;20460;-68
2022/08/26 07:42:14;;;;;;;12.37;9.90;;;23.00;99.90;;;;;;4919503;28;20495;-68
2022/08/26 07:45:08;;;;;;;11.67;10.60;;;23.10;99.90;;;;;;4917470;29;20511;-69
2022/08/26 07:47:57;;;;;;;10.93;9.93;;;23.20;99.90;;;;;;4915964;29;20468;-70
2022/08/26 07:50:46;;;;;;;10.93;9.80;;;23.30;99.90;;;;;;4921537;29;20994;-70
2022/08/26 07:53:38;;;;;;;11.80;10.80;;;23.30;99.90;;;;;;4909373;29;20492;-68
2022/08/26 07:56:26;;;;;;;11.10;10.10;;;23.40;99.90;;;;;;4914023;29;20495;-70
2022/08/26 07:59:16;;;;;;;11.47;10.27;;;23.50;99.90;;;;;;4906121;28;20456;-68
2022/08/26 08:02:05;;;;;;;12.13;10.13;;;23.60;99.90;;;;;;4910898;28;24199;-69
2022/08/26 08:04:56;;;;;;;12.17;10.97;;;23.70;99.90;;;;;;4911745;28;20487;-69
2022/08/26 08:07:45;;;;;;;10.60;9.70;;;23.80;99.90;;;;;;4911426;29;20456;-70
2022/08/26 08:10:35;;;;;;;11.43;10.43;;;23.90;99.90;;;;;;4912468;29;20464;-70
2022/08/26 08:13:23;;;;;;;11.50;10.40;;;24.00;99.90;;;;;;4914606;28;20579;-68
2022/08/26 08:16:13;;;;;;;11.07;10.13;;;24.00;99.90;;;;;;4906851;28;20480;-69
2022/08/26 08:19:01;;;;;;;11.33;10.10;;;24.10;99.90;;;;;;4905184;29;20452;-68
2022/08/26 08:21:52;;;;;;;11.40;10.30;;;24.20;99.90;;;;;;4913302;29;20460;-71
2022/08/26 08:24:42;;;;;;;11.10;10.07;;;24.30;99.90;;;;;;4922429;29;20475;-71
2022/08/26 08:27:32;;;;;;;11.97;10.77;;;24.40;99.90;;;;;;4919593;29;20467;-71
2022/08/26 08:30:24;;;;;;;10.60;9.53;;;24.40;99.90;;;;;;4922145;28;21051;-70
2022/08/26 08:33:15;;;;;;;12.37;10.17;;;24.50;99.90;;;;;;4923365;29;20459;-70
2022/08/26 08:36:06;;;;;;;11.57;10.30;;;24.50;99.90;;;;;;4925633;29;20514;-70
2022/08/26 08:38:56;;;;;;;12.40;10.33;;;24.60;99.90;;;;;;4913593;29;20467;-70
2022/08/26 08:42:06;;;;;;;12.50;10.00;;;24.60;99.90;;;;;;4908890;29;20555;-70
2022/08/26 08:44:59;;;;;;;11.57;10.30;;;24.60;99.90;;;;;;4914780;29;21481;-69
2022/08/26 08:47:50;;;;;;;12.13;10.90;;;24.70;99.90;;;;;;4911783;29;20601;-69
2022/08/26 08:50:45;;;;;;;10.57;9.57;;;24.70;99.90;;;;;;4918055;29;20502;-69
2022/08/26 08:53:37;;;;;;;11.37;10.27;;;24.70;99.90;;;;;;4912912;29;20491;-69
2022/08/26 08:56:31;;;;;;;13.40;10.60;;;24.70;99.90;;;;;;4920158;29;20483;-69
2022/08/26 08:59:22;;;;;;;11.50;10.30;;;24.80;99.90;;;;;;4918178;29;20964;-69
2022/08/26 09:02:20;;;;;;;10.50;9.60;;;24.90;99.90;;;;;;4917173;29;20456;-70
2022/08/26 09:05:13;;;;;;;10.60;9.50;;;24.90;99.90;;;;;;4913198;29;21141;-70
2022/08/26 09:08:08;;;;;;;13.57;10.60;;;25.00;99.90;;;;;;4924218;29;21660;-70
2022/08/26 09:11:08;;;;;;;11.00;9.90;;;25.00;99.90;;;;;;4921023;29;20464;-70
2022/08/26 09:14:00;;;;;;;11.03;10.13;;;25.00;99.90;;;;;;4921491;29;22449;-70
2022/08/26 09:16:57;;;;;;;11.13;9.43;;;25.00;99.90;;;;;;4923316;28;20903;-70
2022/08/26 09:19:51;;;;;;;10.50;9.50;;;25.10;99.90;;;;;;4917001;28;21400;-70
2022/08/26 09:22:40;;;;;;;10.30;9.30;;;25.10;99.90;;;;;;4918909;29;20978;-70
2022/08/26 09:25:45;;;;;;;11.30;8.90;;;25.20;99.90;;;;;;4920505;29;20881;-70
2022/08/26 09:28:34;;;;;;;11.10;9.57;;;25.20;99.90;;;;;;4922743;29;20467;-70
2022/08/26 09:31:26;;;;;;;10.33;9.23;;;25.30;99.90;;;;;;4914380;29;20456;-68
2022/08/26 09:34:17;;;;;;;10.23;9.33;;;25.30;99.90;;;;;;4913834;28;20478;-68
2022/08/26 09:37:07;;;;;;;10.80;9.70;;;25.30;99.90;;;;;;4917264;29;20815;-68
2022/08/26 09:40:17;;;;;;;10.63;9.53;;;25.30;99.90;;;;;;4913081;29;20460;-68
2022/08/26 09:43:18;;;;;;;11.13;9.70;;;25.30;99.90;;;;;;4917877;29;20538;-68
2022/08/26 09:46:14;;;;;;;11.23;10.13;;;25.40;99.90;;;;;;4914503;29;20514;-68
2022/08/26 09:49:23;;;;;;;13.63;10.43;;;25.40;99.90;;;;;;4913500;29;20452;-68
2022/08/26 09:52:19;;;;;;;11.47;9.60;;;25.40;99.90;;;;;;4910705;29;20829;-68
2022/08/26 09:55:13;;;;;;;10.73;9.80;;;25.40;99.90;;;;;;4916002;29;21143;-70
2022/08/26 09:58:03;;;;;;;11.77;10.40;;;25.50;99.90;;;;;;4916643;29;22785;-69
2022/08/26 10:01:00;;;;;;;11.93;10.20;;;25.50;99.90;;;;;;4920816;29;20542;-69
2022/08/26 10:03:52;;;;;;;12.93;10.63;;;25.50;99.90;;;;;;4911268;28;20456;-69
2022/08/26 10:06:44;;;;;;;10.87;9.77;;;25.50;99.90;;;;;;4910133;29;20484;-69
2022/08/26 10:09:35;;;;;;;11.97;10.13;;;25.40;99.90;;;;;;4915726;29;20464;-70
2022/08/26 10:12:24;;;;;;;12.43;11.23;;;25.40;99.90;;;;;;4914490;29;20623;-69
2022/08/26 10:15:15;;;;;;;10.63;9.50;;;25.40;99.90;;;;;;4912750;29;20606;-70
2022/08/26 10:18:14;;;;;;;11.53;10.33;;;25.40;99.90;;;;;;4913718;29;20559;-69
2022/08/26 10:21:07;;;;;;;12.10;10.00;;;25.40;99.90;;;;;;4908093;28;20658;-69
2022/08/26 10:23:59;;;;;;;11.37;10.27;;;25.40;99.90;;;;;;4913941;28;20495;-69
2022/08/26 10:27:02;;;;;;;11.20;10.20;;;25.40;99.90;;;;;;4914328;29;20490;-69
2022/08/26 10:29:56;;;;;;;11.37;9.60;;;25.40;99.90;;;;;;4912747;28;20452;-71
2022/08/26 10:32:48;;;;;;;11.30;10.20;;;25.40;99.90;;;;;;4913167;29;21027;-69
2022/08/26 10:35:44;;;;;;;11.03;10.00;;;25.50;99.90;;;;;;4903333;28;20491;-69
2022/08/26 10:38:35;;;;;;;13.23;11.90;;;25.50;99.90;;;;;;4916948;29;20460;-69
2022/08/26 10:41:27;;;;;;;12.20;11.00;;;25.50;99.90;;;;;;4915906;29;20467;-69
2022/08/26 10:44:18;;;;;;;13.17;11.10;;;25.50;99.90;;;;;;4913031;29;20467;-69
2022/08/26 10:47:16;;;;;;;15.57;11.63;;;25.50;99.90;;;;;;4904879;29;20518;-70
2022/08/26 10:50:05;;;;;;;11.80;10.67;;;25.50;99.90;;;;;;4913222;29;22810;-69
2022/08/26 10:53:03;;;;;;;12.80;11.50;;;25.50;99.90;;;;;;4916396;29;20627;-69
2022/08/26 10:56:01;;;;;;;12.13;10.67;;;25.60;99.90;;;;;;4905485;29;21138;-70
2022/08/26 10:59:00;;;;;;;13.17;10.70;;;25.60;99.90;;;;;;4909535;29;20549;-70
2022/08/26 11:01:58;;;;;;;11.43;10.33;;;25.60;99.90;;;;;;4909752;29;20455;-69
2022/08/26 11:04:57;;;;;;;13.10;10.20;;;25.60;99.90;;;;;;4914268;28;20460;-70
2022/08/26 11:07:47;;;;;;;12.73;10.63;;;25.70;99.90;;;;;;4910287;29;20460;-69
2022/08/26 11:10:56;;;;;;;11.40;10.27;;;25.70;99.90;;;;;;4909463;29;20463;-69
2022/08/26 11:14:00;;;;;;;13.27;10.37;;;25.80;99.90;;;;;;4914980;29;20460;-69
2022/08/26 11:16:50;;;;;;;12.00;10.60;;;25.80;99.90;;;;;;4915509;29;21047;-69
2022/08/26 11:19:59;;;;;;;12.10;11.00;;;25.90;99.90;;;;;;4902870;29;20471;-70
2022/08/26 11:22:54;;;;;;;13.17;10.90;;;25.90;99.90;;;;;;4908619;29;21068;-69
2022/08/26 11:26:15;;;;;;;12.07;10.27;;;26.00;99.90;;;;;;4907500;28;20520;-69
2022/08/26 11:29:59;;;;;;;14.90;11.30;;;26.10;99.90;;;;;;4912500;29;20506;-71
2022/08/26 11:32:50;;;;;;;17.37;11.33;;;26.20;99.90;;;;;;4905562;28;21857;-71
2022/08/26 11:35:50;;;;;;;15.20;10.70;;;26.30;99.90;;;;;;4915904;28;20484;-68
2022/08/26 11:38:42;;;;;;;11.97;10.83;;;26.40;99.90;;;;;;4915181;29;20491;-68
2022/08/26 11:41:34;;;;;;;13.47;10.67;;;26.50;99.90;;;;;;4917303;28;22105;-68
2022/08/26 11:44:26;;;;;;;11.00;9.97;;;26.60;99.90;;;;;;4916211;28;20472;-68
2022/08/26 11:47:16;;;;;;;10.30;9.47;;;26.70;99.90;;;;;;4903344;29;20972;-71
2022/08/26 11:50:08;;;;;;;11.30;10.10;;;26.70;99.90;;;;;;4911841;29;20518;-71
2022/08/26 11:53:03;;;;;;;11.53;10.40;;;26.90;99.90;;;;;;4915893;29;21051;-71
2022/08/26 11:55:59;;;;;;;13.47;11.03;;;27.00;99.90;;;;;;4909187;29;20496;-72
2022/08/26 11:58:55;;;;;;;11.10;10.00;;;27.10;99.90;;;;;;4917142;29;20460;-74
2022/08/26 12:01:50;;;;;;;12.23;10.70;;;27.20;99.90;;;;;;4914168;28;20463;-72
2022/08/26 12:04:45;;;;;;;11.70;10.50;;;27.40;99.90;;;;;;4914519;29;20555;-72
2022/08/26 12:07:35;;;;;;;13.97;10.47;;;27.70;99.90;;;;;;4913877;29;20460;-70
2022/08/26 12:10:32;;;;;;;10.40;9.40;;;27.80;99.90;;;;;;4917762;28;20456;-70
2022/08/26 12:13:23;;;;;;;12.23;10.10;;;27.90;99.90;;;;;;4916853;29;20971;-70
2022/08/26 12:16:24;;;;;;;11.23;10.13;;;28.10;99.90;;;;;;4911288;28;20496;-69
2022/08/26 12:19:24;;;;;;;11.27;10.30;;;28.30;99.90;;;;;;4918266;29;20464;-71
2022/08/26 12:22:18;;;;;;;10.70;9.60;;;28.50;99.90;;;;;;4913778;29;20471;-69
2022/08/26 12:25:10;;;;;;;11.37;10.13;;;28.40;99.90;;;;;;4913771;29;20475;-69
2022/08/26 12:28:05;;;;;;;14.23;9.97;;;28.40;99.90;;;;;;4914159;29;20460;-70
2022/08/26 12:31:04;;;;;;;10.47;9.47;;;28.30;99.90;;;;;;4918231;29;20595;-69
2022/08/26 12:33:57;;;;;;;11.17;9.87;;;28.40;99.90;;;;;;4923183;29;20470;-69
2022/08/26 12:36:48;;;;;;;11.73;10.30;;;28.40;99.90;;;;;;4917862;29;20495;-69
2022/08/26 12:39:40;;;;;;;10.93;9.60;;;28.40;99.90;;;;;;4912355;29;20455;-68
2022/08/26 12:42:43;;;;;;;10.33;8.60;;;28.30;99.90;;;;;;4902067;29;20471;-71
2022/08/26 12:45:34;;;;;;;12.20;10.70;;;28.40;99.90;;;;;;4905358;29;20576;-71
2022/08/26 12:48:28;;;;;;;12.40;10.50;;;28.50;99.90;;;;;;4907971;29;20460;-72
2022/08/26 12:51:23;;;;;;;10.97;9.93;;;28.50;99.90;;;;;;4909075;28;20467;-72
2022/08/26 12:54:14;;;;;;;12.47;9.97;;;28.50;99.90;;;;;;4905241;29;20967;-71
2022/08/26 12:57:10;;;;;;;13.00;10.17;;;28.50;99.90;;;;;;4909491;29;20472;-71
2022/08/26 13:00:39;;;;;;;10.40;9.50;;;28.50;99.90;;;;;;4912766;28;20456;-71
2022/08/26 13:03:42;;;;;;;10.33;9.43;;;28.50;99.90;;;;;;4909206;29;20460;-71
2022/08/26 13:06:33;;;;;;;11.70;9.83;;;28.40;99.90;;;;;;4914218;29;20483;-69
2022/08/26 13:09:33;;;;;;;11.77;10.30;;;28.30;99.90;;;;;;4911358;29;20468;-72
2022/08/26 13:12:27;;;;;;;11.43;10.43;;;28.30;99.90;;;;;;4915193;29;20483;-71
2022/08/26 13:15:16;;;;;;;11.70;9.83;;;28.30;99.90;;;;;;4920121;29;20526;-74
2022/08/26 13:18:06;;;;;;;11.27;10.30;;;28.20;99.90;;;;;;4918035;29;20887;-72
2022/08/26 13:20:55;;;;;;;11.77;10.50;;;28.20;99.90;;;;;;4921166;29;20452;-74
2022/08/26 13:23:45;;;;;;;11.87;10.77;;;28.20;99.90;;;;;;4918384;29;20452;-73
2022/08/26 13:26:33;;;;;;;11.50;10.30;;;28.10;99.90;;;;;;4918543;29;21027;-74
2022/08/26 13:29:26;;;;;;;12.23;11.00;;;28.10;99.90;;;;;;4916463;29;20883;-74
2022/08/26 13:32:16;;;;;;;12.17;10.97;;;28.00;99.90;;;;;;4913276;29;20823;-76
2022/08/26 13:35:05;;;;;;;13.97;11.50;;;27.90;99.90;;;;;;4911906;29;20480;-74
2022/08/26 13:37:54;;;;;;;12.27;10.97;;;27.90;99.90;;;;;;4916371;29;20463;-74
2022/08/26 13:40:58;;;;;;;12.10;10.47;;;27.80;99.90;;;;;;4905330;29;20460;-73
2022/08/26 13:43:48;;;;;;;11.23;10.10;;;27.80;99.90;;;;;;4923476;29;20460;-73
2022/08/26 13:46:37;;;;;;;11.07;10.03;;;27.80;99.90;;;;;;4919871;29;20499;-73
2022/08/26 13:49:25;;;;;;;11.90;10.63;;;27.80;99.90;;;;;;4925307;29;20461;-73
2022/08/26 13:52:15;;;;;;;12.27;11.07;;;27.80;99.90;;;;;;4927383;29;20464;-73
2022/08/26 13:55:05;;;;;;;12.27;11.10;;;27.80;99.90;;;;;;4927799;29;20475;-73
2022/08/26 13:57:55;;;;;;;11.93;10.70;;;27.80;99.90;;;;;;4917563;29;20480;-73
2022/08/26 14:00:43;;;;;;;12.20;11.00;;;27.80;99.90;;;;;;4923967;29;20464;-73
2022/08/26 14:03:34;;;;;;;13.13;10.93;;;27.80;99.90;;;;;;4926602;29;20614;-73
2022/08/26 14:06:22;;;;;;;12.33;11.07;;;27.80;99.90;;;;;;4924869;28;20567;-73
2022/08/26 14:09:12;;;;;;;12.00;10.80;;;27.80;99.90;;;;;;4924028;29;20463;-73
2022/08/26 14:12:01;;;;;;;11.63;10.43;;;27.80;99.90;;;;;;4922201;29;20483;-73
2022/08/26 14:14:51;;;;;;;12.60;11.30;;;27.80;99.90;;;;;;4921320;28;20510;-73
2022/08/26 14:17:44;;;;;;;12.10;10.90;;;27.70;99.90;;;;;;4925369;29;20495;-73
2022/08/26 14:20:34;;;;;;;14.20;11.63;;;27.70;99.90;;;;;;4924041;29;20808;-73
2022/08/26 14:23:23;;;;;;;12.47;11.27;;;27.80;99.90;;;;;;4923585;29;20470;-73
2022/08/26 14:26:12;;;;;;;16.07;12.57;;;27.80;99.90;;;;;;4922593;29;20483;-73
2022/08/26 14:29:16;;;;;;;12.97;11.40;;;27.90;99.90;;;;;;4922517;28;20462;-73
2022/08/26 14:32:10;;;;;;;13.37;11.97;;;27.80;99.90;;;;;;4924700;29;20460;-72
2022/08/26 14:34:58;;;;;;;14.27;12.93;;;27.80;99.90;;;;;;4924868;29;20494;-73
2022/08/26 14:37:47;;;;;;;12.10;10.90;;;27.80;99.90;;;;;;4921941;28;20483;-73
2022/08/26 14:40:38;;;;;;;15.93;11.50;;;27.80;99.90;;;;;;4920773;29;20475;-73
2022/08/26 14:43:26;;;;;;;12.03;10.73;;;28.00;99.90;;;;;;4916545;29;20521;-73
2022/08/26 14:46:15;;;;;;;13.97;10.97;;;28.20;99.90;;;;;;4922010;28;20478;-73
2022/08/26 14:49:08;;;;;;;11.43;10.33;;;28.40;99.90;;;;;;4918820;29;25128;-73
2022/08/26 14:52:01;;;;;;;11.70;10.70;;;28.80;99.90;;;;;;4921538;29;20456;-73
2022/08/26 14:54:49;;;;;;;11.90;10.70;;;29.10;99.90;;;;;;4918683;29;20455;-72
2022/08/26 14:57:42;;;;;;;11.27;10.23;;;29.50;99.90;;;;;;4922703;28;20488;-72
2022/08/26 15:00:30;;;;;;;9.73;8.50;;;30.00;99.90;;;;;;4924699;28;20452;-73
2022/08/26 15:03:22;;;;;;;9.60;8.70;;;30.20;99.90;;;;;;4917331;29;20452;-72
2022/08/26 15:06:13;;;;;;;11.20;8.80;;;30.20;99.90;;;;;;4922955;29;20487;-74
2022/08/26 15:09:04;;;;;;;9.10;8.20;;;30.10;99.90;;;;;;4916075;28;20531;-74
2022/08/26 15:11:53;;;;;;;9.37;8.10;;;29.80;99.90;;;;;;4916467;29;20511;-74
2022/08/26 15:14:41;;;;;;;10.17;8.30;;;29.60;99.90;;;;;;4920792;29;20471;-74
2022/08/26 15:17:30;;;;;;;8.33;7.73;;;29.40;99.90;;;;;;4924966;29;20484;-74
2022/08/26 15:20:19;;;;;;;8.57;7.87;;;29.20;99.90;;;;;;4915458;28;20464;-72
2022/08/26 15:23:11;;;;;;;8.40;7.70;;;29.10;99.90;;;;;;4918349;29;20964;-72
2022/08/26 15:25:59;;;;;;;9.03;8.23;;;29.00;99.90;;;;;;4913760;29;20626;-72
2022/08/26 15:28:48;;;;;;;9.17;8.40;;;28.90;99.90;;;;;;4917391;28;21021;-73
2022/08/26 15:31:36;;;;;;;8.57;7.70;;;28.80;99.90;;;;;;4917015;29;20456;-74
2022/08/26 15:34:27;;;;;;;8.97;8.10;;;28.70;99.90;;;;;;4921260;29;20512;-76
2022/08/26 15:37:18;;;;;;;8.30;7.60;;;28.70;99.90;;;;;;4920882;29;20877;-74